Time;durP1;ratioP1;P1;durP2;ratioP2;P2;SDS_P1;SDS_P2;PMS_P1;PMS_P2;Temp;Humidity;BMP_temperature;BMP_pressure;BME280_temperature;BME280_humidity;BME280_pressure;Samples;Min_cycle;Max_cycle;Signal;HPM_P1;HPM_P2
2023/04/27 00:00:48;;;;;;;2.30;1.50;;;;;;;19.32;56.35;99383.06;5092294;28;20035;-74
2023/04/27 00:03:13;;;;;;;1.88;1.20;;;;;;;19.32;56.26;99383.06;5092557;28;20074;-73
2023/04/27 00:05:38;;;;;;;2.08;1.30;;;;;;;19.32;56.27;99383.06;5092540;28;20464;-73
2023/04/27 00:08:07;;;;;;;2.70;1.67;;;;;;;19.33;56.32;99378.63;5092148;28;20032;-73
2023/04/27 00:10:33;;;;;;;2.17;1.20;;;;;;;19.31;56.21;99378.69;5092607;28;20028;-74
2023/04/27 00:12:59;;;;;;;1.95;1.15;;;;;;;19.32;56.18;99371.59;5092276;28;20060;-74
2023/04/27 00:15:24;;;;;;;2.15;1.23;;;;;;;19.30;56.57;99376.13;5092285;28;20059;-73
2023/04/27 00:17:50;;;;;;;2.00;1.20;;;;;;;19.29;56.56;99371.78;5091991;28;20028;-73
2023/04/27 00:20:15;;;;;;;2.72;1.50;;;;;;;19.29;56.28;99369.13;5092384;28;20082;-73
2023/04/27 00:22:41;;;;;;;1.58;1.00;;;;;;;19.25;56.60;99365.81;5091967;28;20539;-73
2023/04/27 00:25:06;;;;;;;1.70;1.10;;;;;;;19.26;56.62;99362.22;5092125;28;20028;-73
2023/04/27 00:27:32;;;;;;;2.15;1.25;;;;;;;19.25;56.37;99355.22;5092056;28;20020;-73
2023/04/27 00:29:58;;;;;;;1.83;1.30;;;;;;;19.25;56.64;99349.94;5073748;28;20028;-73
2023/04/27 00:32:23;;;;;;;2.10;1.30;;;;;;;19.21;56.50;99343.09;5092366;28;20468;-72
2023/04/27 00:34:48;;;;;;;3.47;1.30;;;;;;;19.20;56.88;99346.69;5091955;28;20488;-73
2023/04/27 00:37:14;;;;;;;2.47;1.42;;;;;;;19.21;56.85;99350.22;5091655;28;20585;-73
2023/04/27 00:39:39;;;;;;;1.75;1.25;;;;;;;19.20;56.61;99346.69;5091987;28;20039;-73
2023/04/27 00:42:05;;;;;;;1.85;1.30;;;;;;;19.20;56.84;99341.41;5091928;28;20028;-73
2023/04/27 00:44:31;;;;;;;2.15;1.20;;;;;;;19.19;56.69;99345.81;5092038;28;20103;-74
2023/04/27 00:46:57;;;;;;;1.90;1.38;;;;;;;19.18;56.67;99348.59;5094910;28;20058;-74
2023/04/27 00:49:23;;;;;;;2.08;1.40;;;;;;;19.15;56.99;99343.44;5096242;28;20032;-74
2023/04/27 00:51:48;;;;;;;2.72;1.50;;;;;;;19.14;56.99;99337.28;5095949;28;20452;-74
2023/04/27 00:54:19;;;;;;;2.17;1.38;;;;;;;19.11;57.06;99353.34;5077944;28;20069;-74
2023/04/27 00:56:47;;;;;;;2.03;1.30;;;;;;;19.11;56.98;99347.19;5095833;28;20020;-74
2023/04/27 00:59:13;;;;;;;2.15;1.40;;;;;;;19.12;56.90;99343.63;5095907;28;20038;-74
2023/04/27 01:01:38;;;;;;;2.50;1.38;;;;;;;19.11;56.95;99347.19;5095862;28;20480;-75
2023/04/27 01:04:04;;;;;;;1.52;1.00;;;;;;;19.09;57.10;99341.13;5095684;28;20097;-74
2023/04/27 01:06:30;;;;;;;2.13;1.27;;;;;;;19.09;56.91;99344.66;5095898;28;20419;-74
2023/04/27 01:08:56;;;;;;;1.98;1.27;;;;;;;19.15;56.61;99359.31;5095868;28;20427;-75
2023/04/27 01:11:22;;;;;;;1.48;1.15;;;;;;;19.10;57.17;99351.66;5095637;28;20056;-74
2023/04/27 01:13:47;;;;;;;2.20;1.40;;;;;;;19.09;56.94;99357.00;5095915;28;20029;-74
2023/04/27 01:16:13;;;;;;;2.03;1.23;;;;;;;19.09;56.98;99359.66;5095817;28;20024;-75
2023/04/27 01:18:39;;;;;;;3.00;1.50;;;;;;;19.09;57.25;99354.38;5095084;28;20028;-74
2023/04/27 01:21:06;;;;;;;1.65;1.08;;;;;;;19.08;57.10;99368.53;5095688;28;20043;-74
2023/04/27 01:23:31;;;;;;;2.08;1.00;;;;;;;19.05;57.38;99357.16;5095591;28;20056;-74
2023/04/27 01:25:56;;;;;;;1.83;1.20;;;;;;;19.04;57.21;99344.88;5095638;28;20071;-74
2023/04/27 01:28:22;;;;;;;1.65;1.00;;;;;;;19.04;57.42;99347.53;5095645;28;20089;-74
2023/04/27 01:30:47;;;;;;;2.20;1.00;;;;;;;19.04;57.10;99352.81;5095509;28;20047;-74
2023/04/27 01:33:13;;;;;;;2.17;1.23;;;;;;;19.04;57.17;99358.09;5095040;28;20575;-74
2023/04/27 01:35:38;;;;;;;2.38;1.27;;;;;;;19.03;56.98;99351.13;5095363;28;20069;-75
2023/04/27 01:38:03;;;;;;;2.00;1.20;;;;;;;19.03;57.08;99345.81;5095193;28;20043;-74
2023/04/27 01:40:29;;;;;;;2.10;1.15;;;;;;;19.02;57.47;99337.94;5095300;28;20035;-75
2023/04/27 01:42:55;;;;;;;2.13;1.35;;;;;;;19.00;57.46;99338.03;5095372;28;20049;-75
2023/04/27 01:45:20;;;;;;;1.90;1.33;;;;;;;19.01;57.38;99347.69;5095277;28;20388;-74
2023/04/27 01:47:46;;;;;;;2.45;1.30;;;;;;;18.99;57.27;99349.53;5094329;28;20024;-75
2023/04/27 01:50:11;;;;;;;2.22;1.30;;;;;;;19.00;57.42;99350.41;5076899;28;20028;-75
2023/04/27 01:52:37;;;;;;;1.77;1.20;;;;;;;18.99;57.38;99348.69;5094875;28;20024;-74
2023/04/27 01:55:02;;;;;;;2.50;1.30;;;;;;;18.98;57.29;99353.13;5076898;28;20024;-75
2023/04/27 01:57:28;;;;;;;2.33;1.17;;;;;;;18.97;57.44;99351.41;5094330;28;20103;-74
2023/04/27 01:59:53;;;;;;;2.28;1.38;;;;;;;18.96;57.51;99349.72;5095000;28;20384;-75
2023/04/27 02:02:18;;;;;;;2.13;1.20;;;;;;;18.96;57.37;99341.78;5094440;28;20379;-74
2023/04/27 02:04:44;;;;;;;2.70;1.13;;;;;;;18.97;57.35;99335.56;5094772;28;20031;-74
2023/04/27 02:07:10;;;;;;;3.17;1.17;;;;;;;18.97;57.42;99340.84;5094776;28;20494;-75
2023/04/27 02:09:35;;;;;;;2.63;1.02;;;;;;;18.96;57.27;99338.28;5074433;28;20024;-75
2023/04/27 02:12:01;;;;;;;2.50;1.20;;;;;;;18.94;57.23;99335.75;5074580;28;20017;-75
2023/04/27 02:14:27;;;;;;;2.55;1.35;;;;;;;18.94;57.52;99330.44;5074403;28;20032;-75
2023/04/27 02:16:52;;;;;;;2.35;1.20;;;;;;;18.93;57.38;99328.72;5073968;28;20056;-74
2023/04/27 02:19:17;;;;;;;1.50;1.00;;;;;;;18.92;57.26;99334.94;5091689;28;20036;-75
2023/04/27 02:21:43;;;;;;;2.03;1.00;;;;;;;18.92;57.61;99332.31;5094555;28;20027;-74
2023/04/27 02:24:09;;;;;;;1.75;1.15;;;;;;;18.92;57.71;99337.59;5094359;28;20023;-74
2023/04/27 02:26:34;;;;;;;1.90;1.20;;;;;;;18.91;57.50;99330.59;5076049;28;20064;-74
2023/04/27 02:28:59;;;;;;;1.65;1.08;;;;;;;18.91;57.68;99331.47;5094087;28;20039;-74
2023/04/27 02:31:25;;;;;;;2.10;1.27;;;;;;;18.91;57.51;99328.81;5093375;28;20091;-75
2023/04/27 02:33:51;;;;;;;2.03;1.20;;;;;;;18.91;57.45;99335.88;5093911;28;20044;-74
2023/04/27 02:36:17;;;;;;;1.33;0.98;;;;;;;18.90;57.39;99331.53;5094226;28;20028;-74
2023/04/27 02:38:42;;;;;;;1.55;1.10;;;;;;;18.90;57.66;99328.91;5093921;28;20020;-75
2023/04/27 02:41:08;;;;;;;2.33;1.42;;;;;;;18.88;57.57;99328.09;5094153;28;20103;-74
2023/04/27 02:43:33;;;;;;;2.35;1.30;;;;;;;18.88;57.93;99325.47;5094014;28;20115;-75
2023/04/27 02:46:02;;;;;;;1.60;1.10;;;;;;;18.88;57.84;99325.47;5093584;28;20027;-74
2023/04/27 02:48:29;;;;;;;1.90;1.30;;;;;;;18.86;57.75;99320.28;5093772;28;20036;-74
2023/04/27 02:50:55;;;;;;;1.63;1.10;;;;;;;18.88;57.75;99317.53;5093731;28;20043;-74
2023/04/27 02:53:21;;;;;;;1.85;1.15;;;;;;;18.86;57.82;99327.34;5093868;28;20020;-74
2023/04/27 02:55:47;;;;;;;1.42;0.93;;;;;;;18.87;57.72;99326.41;5093881;28;20389;-74
2023/04/27 02:58:12;;;;;;;1.80;1.00;;;;;;;18.86;57.67;99322.06;5093480;28;20035;-74
2023/04/27 03:00:39;;;;;;;1.17;1.05;;;;;;;18.86;57.39;99327.34;5093408;28;20028;-74
2023/04/27 03:03:06;;;;;;;2.05;1.05;;;;;;;18.85;57.79;99330.94;5093704;28;20024;-74
2023/04/27 03:05:31;;;;;;;1.92;1.00;;;;;;;18.86;57.45;99335.28;5093302;28;20036;-74
2023/04/27 03:07:57;;;;;;;1.77;1.30;;;;;;;18.86;57.70;99330.00;5092858;28;20020;-74
2023/04/27 03:10:22;;;;;;;1.83;1.13;;;;;;;18.87;57.78;99323.75;5093217;28;20055;-74
2023/04/27 03:12:48;;;;;;;1.98;1.13;;;;;;;18.84;57.40;99318.66;5093389;28;20028;-74
2023/04/27 03:15:13;;;;;;;2.17;1.20;;;;;;;18.85;57.62;99326.50;5093074;28;20391;-73
2023/04/27 03:17:38;;;;;;;1.70;1.05;;;;;;;18.86;57.65;99327.34;5093482;28;20047;-74
2023/04/27 03:20:08;;;;;;;1.85;1.20;;;;;;;18.87;57.65;99323.75;5093276;28;20115;-74
2023/04/27 03:22:33;;;;;;;2.13;1.10;;;;;;;18.85;57.43;99312.44;5093336;28;20396;-75
2023/04/27 03:24:59;;;;;;;2.20;1.10;;;;;;;18.85;57.57;99315.06;5093269;28;20031;-74
2023/04/27 03:27:24;;;;;;;2.47;1.25;;;;;;;18.84;57.59;99310.72;5093238;28;20028;-74
2023/04/27 03:29:52;;;;;;;1.45;0.90;;;;;;;18.82;57.42;99309.94;5092724;28;20072;-74
2023/04/27 03:32:17;;;;;;;1.90;1.10;;;;;;;18.82;57.54;99309.94;5093216;28;20430;-74
2023/04/27 03:34:43;;;;;;;2.17;1.10;;;;;;;18.81;57.52;99298.53;5092957;28;20051;-74
2023/04/27 03:37:08;;;;;;;1.70;1.00;;;;;;;18.79;57.77;99306.53;5092844;28;20028;-75
2023/04/27 03:39:34;;;;;;;2.00;1.17;;;;;;;18.78;57.47;99304.84;5092809;28;20039;-74
2023/04/27 03:42:00;;;;;;;2.13;1.15;;;;;;;18.78;57.64;99310.13;5092405;28;20081;-74
2023/04/27 03:44:25;;;;;;;2.05;1.30;;;;;;;18.76;57.73;99309.34;5092603;28;20379;-74
2023/04/27 03:46:51;;;;;;;2.58;1.25;;;;;;;18.77;57.77;99308.41;5092875;28;20016;-74
2023/04/27 03:49:16;;;;;;;1.90;1.10;;;;;;;18.78;57.65;99315.41;5092612;28;20088;-74
2023/04/27 03:51:42;;;;;;;1.20;0.90;;;;;;;18.77;57.99;99319.00;5092369;28;20028;-73
2023/04/27 03:54:08;;;;;;;1.15;0.90;;;;;;;18.77;57.69;99312.84;5092689;28;20048;-75
2023/04/27 03:56:34;;;;;;;1.60;1.10;;;;;;;18.77;57.69;99318.13;5092600;28;20050;-74
2023/04/27 03:59:00;;;;;;;2.30;1.10;;;;;;;18.76;57.56;99322.56;5092089;28;20052;-75
2023/04/27 04:01:25;;;;;;;2.15;1.08;;;;;;;18.75;57.51;99310.28;5074402;28;20103;-74
2023/04/27 04:03:51;;;;;;;1.55;0.90;;;;;;;18.77;57.72;99313.72;5092514;28;20028;-74
2023/04/27 04:06:16;;;;;;;2.22;1.05;;;;;;;18.76;57.76;99312.00;5092559;28;20024;-74
2023/04/27 04:08:42;;;;;;;1.77;1.08;;;;;;;18.76;57.57;99316.41;5092454;28;20591;-74
2023/04/27 04:11:07;;;;;;;2.22;1.20;;;;;;;18.76;57.73;99317.28;5092546;28;20103;-74
2023/04/27 04:13:32;;;;;;;1.42;1.05;;;;;;;18.77;57.64;99307.56;5092139;28;20024;-74
2023/04/27 04:16:06;;;;;;;1.55;0.90;;;;;;;18.76;57.67;99296.16;5092522;28;20384;-74
2023/04/27 04:18:32;;;;;;;1.70;1.08;;;;;;;18.75;57.66;99283.00;5092362;28;20028;-74
2023/04/27 04:20:58;;;;;;;2.33;1.00;;;;;;;18.75;57.64;99294.41;5091907;28;20464;-75
2023/04/27 04:23:23;;;;;;;2.50;1.15;;;;;;;18.74;57.64;99295.34;5092249;28;20035;-74
2023/04/27 04:25:49;;;;;;;1.67;1.20;;;;;;;18.75;57.74;99299.69;5092300;28;20027;-74
2023/04/27 04:28:15;;;;;;;1.73;1.00;;;;;;;18.74;57.61;99305.94;5091854;28;20129;-74
2023/04/27 04:30:40;;;;;;;1.80;1.10;;;;;;;18.74;57.80;99303.28;5092003;28;20034;-74
2023/04/27 04:33:07;;;;;;;1.20;0.90;;;;;;;18.74;57.87;99303.28;5092021;28;20059;-74
2023/04/27 04:35:32;;;;;;;1.25;0.90;;;;;;;18.74;57.92;99305.09;5092009;28;20494;-74
2023/04/27 04:37:58;;;;;;;1.33;0.80;;;;;;;18.73;57.88;99312.16;5091801;28;20024;-73
2023/04/27 04:40:24;;;;;;;1.85;0.98;;;;;;;18.73;57.52;99306.88;5091879;28;20107;-74
2023/04/27 04:42:49;;;;;;;1.92;1.10;;;;;;;18.73;57.84;99301.59;5091656;28;20073;-74
2023/04/27 04:45:15;;;;;;;1.13;0.95;;;;;;;18.73;57.86;99306.88;5092219;28;20499;-74
2023/04/27 04:47:40;;;;;;;1.95;1.30;;;;;;;18.73;57.73;99306.00;5092061;28;20028;-76
2023/04/27 04:50:08;;;;;;;2.42;1.10;;;;;;;18.71;57.70;99314.03;5092372;28;20024;-74
2023/04/27 04:52:34;;;;;;;1.30;1.00;;;;;;;18.72;57.51;99315.75;5092007;28;20048;-74
2023/04/27 04:54:59;;;;;;;1.50;1.00;;;;;;;18.74;57.64;99335.00;5074084;28;20081;-73
2023/04/27 04:57:25;;;;;;;1.80;1.10;;;;;;;18.73;57.52;99316.56;5073248;28;20051;-74
2023/04/27 04:59:50;;;;;;;1.75;1.25;;;;;;;18.73;57.53;99314.81;5091729;28;20032;-73
2023/04/27 05:02:15;;;;;;;1.10;0.73;;;;;;;18.72;57.80;99321.03;5091862;28;20032;-74
2023/04/27 05:04:41;;;;;;;1.55;1.02;;;;;;;18.73;57.60;99328.00;5091999;28;20028;-73
2023/04/27 05:07:06;;;;;;;1.20;0.75;;;;;;;18.72;57.51;99331.59;5091953;28;20036;-73
2023/04/27 05:09:32;;;;;;;1.50;1.08;;;;;;;18.71;57.76;99329.91;5091799;28;20120;-73
2023/04/27 05:11:58;;;;;;;1.70;0.90;;;;;;;18.70;57.74;99328.16;5091653;28;20020;-73
2023/04/27 05:14:23;;;;;;;1.67;1.17;;;;;;;18.71;57.87;99327.25;5091770;28;20107;-73
2023/04/27 05:16:50;;;;;;;1.90;1.15;;;;;;;18.71;57.92;99329.91;5091794;28;20115;-73
2023/04/27 05:19:17;;;;;;;2.42;1.30;;;;;;;18.69;57.66;99326.47;5091669;28;20036;-74
2023/04/27 05:21:44;;;;;;;1.52;1.00;;;;;;;18.70;57.69;99328.16;5091589;28;20036;-73
2023/04/27 05:24:10;;;;;;;1.83;0.80;;;;;;;18.69;57.56;99326.47;5091812;28;20031;-73
2023/04/27 05:26:35;;;;;;;1.58;1.08;;;;;;;18.68;57.92;99316.84;5091348;28;20024;-74
2023/04/27 05:29:01;;;;;;;1.73;1.10;;;;;;;18.69;57.77;99320.34;5091816;28;20026;-73
2023/04/27 05:31:26;;;;;;;1.60;1.10;;;;;;;18.68;57.66;99330.03;5091867;28;20017;-73
2023/04/27 05:33:52;;;;;;;1.58;1.08;;;;;;;18.70;57.84;99332.63;5095201;28;20105;-72
2023/04/27 05:36:17;;;;;;;1.58;1.10;;;;;;;18.68;57.85;99337.97;5095587;28;20524;-73
2023/04/27 05:38:43;;;;;;;2.42;1.50;;;;;;;18.67;57.73;99333.63;5095052;28;20495;-72
2023/04/27 05:41:08;;;;;;;1.92;1.35;;;;;;;18.67;57.77;99338.91;5094430;28;20023;-73
2023/04/27 05:43:39;;;;;;;1.85;1.20;;;;;;;18.68;57.62;99351.19;5094925;28;20019;-73
2023/04/27 05:46:05;;;;;;;1.77;1.05;;;;;;;18.68;57.57;99340.63;5095017;28;20031;-73
2023/04/27 05:48:30;;;;;;;1.40;0.75;;;;;;;18.68;57.73;99353.00;5076535;28;20028;-73
2023/04/27 05:51:02;;;;;;;1.92;1.20;;;;;;;18.69;57.73;99352.06;5095185;28;20020;-74
2023/04/27 05:53:29;;;;;;;1.50;0.90;;;;;;;18.67;57.84;99349.50;5095009;28;20024;-73
2023/04/27 05:55:57;;;;;;;1.73;1.00;;;;;;;18.67;57.87;99354.78;5076557;28;20031;-74
2023/04/27 05:58:23;;;;;;;1.27;1.00;;;;;;;18.67;58.00;99354.78;5094845;28;20032;-74
2023/04/27 06:00:49;;;;;;;1.95;1.20;;;;;;;18.67;57.64;99361.84;5094377;28;20039;-74
2023/04/27 06:03:14;;;;;;;1.50;0.98;;;;;;;18.66;57.89;99350.44;5094810;28;20381;-74
2023/04/27 06:05:40;;;;;;;2.03;1.02;;;;;;;18.66;58.12;99345.16;5094934;28;20081;-74
2023/04/27 06:08:05;;;;;;;2.28;1.35;;;;;;;18.66;57.88;99347.78;5094582;28;20472;-74
2023/04/27 06:10:31;;;;;;;1.80;1.10;;;;;;;18.65;58.14;99346.91;5094406;28;20038;-74
2023/04/27 06:12:56;;;;;;;1.40;1.00;;;;;;;18.66;58.09;99345.16;5094846;28;20108;-74
2023/04/27 06:15:22;;;;;;;1.83;1.23;;;;;;;18.64;58.03;99352.28;5094638;28;20445;-74
2023/04/27 06:17:47;;;;;;;1.77;1.10;;;;;;;18.64;58.07;99341.72;5094408;28;20535;-74
2023/04/27 06:20:13;;;;;;;2.15;1.40;;;;;;;18.66;58.13;99347.78;5094359;28;20560;-74
2023/04/27 06:22:38;;;;;;;1.65;0.98;;;;;;;18.67;57.93;99354.78;5094407;28;20039;-74
2023/04/27 06:25:05;;;;;;;1.75;1.15;;;;;;;18.68;58.20;99350.34;5094123;28;20472;-74
2023/04/27 06:27:31;;;;;;;2.35;1.30;;;;;;;18.67;57.77;99353.91;5094302;28;20396;-74
2023/04/27 06:29:57;;;;;;;2.10;1.17;;;;;;;18.65;58.17;99356.66;5093681;28;20028;-74
2023/04/27 06:32:22;;;;;;;1.70;1.20;;;;;;;18.67;58.16;99352.13;5094441;28;20034;-74
2023/04/27 06:34:48;;;;;;;1.73;1.20;;;;;;;18.68;58.25;99355.66;5094008;28;20111;-74
2023/04/27 06:37:15;;;;;;;2.25;1.35;;;;;;;18.67;58.30;99349.50;5094147;28;20107;-74
2023/04/27 06:39:42;;;;;;;1.73;1.08;;;;;;;18.67;58.07;99348.63;5093579;28;20077;-73
2023/04/27 06:42:07;;;;;;;1.52;1.20;;;;;;;18.68;58.33;99351.19;5094040;28;20032;-73
2023/04/27 06:44:32;;;;;;;1.98;1.15;;;;;;;18.69;58.06;99352.91;5075787;28;20048;-73
2023/04/27 06:46:58;;;;;;;1.73;1.02;;;;;;;18.69;58.27;99354.69;5093973;28;20024;-74
2023/04/27 06:49:23;;;;;;;2.08;1.20;;;;;;;18.70;57.99;99359.88;5093784;28;20446;-73
2023/04/27 06:51:49;;;;;;;1.92;1.10;;;;;;;18.71;58.03;99353.69;5093911;28;20555;-74
2023/04/27 06:54:15;;;;;;;1.52;1.00;;;;;;;18.72;58.25;99344.81;5093420;28;20020;-74
2023/04/27 06:56:41;;;;;;;3.92;1.67;;;;;;;18.75;58.08;99347.28;5075876;28;20499;-74
2023/04/27 06:59:07;;;;;;;1.58;1.10;;;;;;;18.76;58.38;99338.44;5093656;28;20036;-73
2023/04/27 07:01:32;;;;;;;1.98;1.25;;;;;;;18.77;58.06;99339.28;5093737;28;20112;-73
2023/04/27 07:03:58;;;;;;;1.63;0.98;;;;;;;18.77;58.20;99324.28;5093454;28;20500;-74
2023/04/27 07:06:24;;;;;;;1.92;1.10;;;;;;;18.81;58.12;99318.81;5093733;28;20073;-74
2023/04/27 07:08:50;;;;;;;2.20;1.25;;;;;;;18.86;57.55;99322.06;5093115;28;20388;-73
2023/04/27 07:11:15;;;;;;;2.75;1.15;;;;;;;18.89;57.31;99316.63;5093100;28;20024;-73
2023/04/27 07:13:41;;;;;;;1.92;1.20;;;;;;;18.91;57.86;99320.03;5093583;28;20039;-74
2023/04/27 07:16:07;;;;;;;1.80;1.20;;;;;;;18.91;57.51;99306.81;5093422;28;20028;-74
2023/04/27 07:18:32;;;;;;;2.15;1.30;;;;;;;18.94;57.36;99304.00;5093096;28;20024;-74
2023/04/27 07:20:58;;;;;;;2.17;1.27;;;;;;;18.95;57.44;99305.72;5093437;28;20043;-73
2023/04/27 07:23:23;;;;;;;2.47;1.20;;;;;;;18.96;57.26;99307.41;5092988;28;20085;-73
2023/04/27 07:25:49;;;;;;;1.83;1.13;;;;;;;18.98;57.15;99305.53;5093278;28;20098;-72
2023/04/27 07:28:15;;;;;;;1.63;1.08;;;;;;;18.98;57.56;99304.69;5093217;28;20020;-74
2023/04/27 07:30:41;;;;;;;1.85;1.20;;;;;;;18.99;57.28;99301.94;5093003;28;20024;-73
2023/04/27 07:33:07;;;;;;;1.70;1.20;;;;;;;19.00;57.44;99297.50;5092962;28;20470;-73
2023/04/27 07:35:32;;;;;;;1.83;1.00;;;;;;;19.02;57.25;99309.72;5092205;28;20040;-74
2023/04/27 07:38:02;;;;;;;2.03;1.08;;;;;;;19.04;57.17;99309.66;5092955;28;20024;-73
2023/04/27 07:40:29;;;;;;;1.45;1.10;;;;;;;19.03;57.02;99303.50;5092684;28;20507;-73
2023/04/27 07:42:55;;;;;;;2.13;1.20;;;;;;;19.04;57.18;99304.38;5092776;28;20024;-74
2023/04/27 07:45:22;;;;;;;1.83;1.10;;;;;;;19.06;57.15;99307.78;5092787;28;20027;-73
2023/04/27 07:47:48;;;;;;;2.28;1.02;;;;;;;19.07;56.95;99306.84;5092899;28;20445;-73
2023/04/27 07:50:17;;;;;;;1.58;1.00;;;;;;;19.06;57.06;99307.78;5091946;28;20103;-74
2023/04/27 07:52:43;;;;;;;1.67;1.10;;;;;;;19.07;57.23;99298.91;5092843;28;20020;-73
2023/04/27 07:55:08;;;;;;;2.05;1.17;;;;;;;19.08;56.97;99294.47;5092357;28;20032;-73
2023/04/27 07:57:34;;;;;;;2.13;1.25;;;;;;;19.10;57.14;99287.31;5092713;28;20023;-74
2023/04/27 08:00:00;;;;;;;1.50;1.00;;;;;;;19.10;57.19;99298.75;5092579;28;20111;-74
2023/04/27 08:02:30;;;;;;;2.38;1.10;;;;;;;19.11;57.16;99294.28;5092580;28;20028;-73
2023/04/27 08:04:56;;;;;;;1.88;1.20;;;;;;;19.12;57.23;99301.31;5092194;28;20472;-73
2023/04/27 08:07:21;;;;;;;2.53;1.10;;;;;;;19.13;57.07;99303.03;5092372;28;20104;-74
2023/04/27 08:09:49;;;;;;;2.15;1.13;;;;;;;19.14;57.06;99304.72;5092527;28;20103;-73
2023/04/27 08:12:15;;;;;;;1.95;1.30;;;;;;;19.15;57.17;99309.06;5092554;28;20024;-73
2023/04/27 08:14:40;;;;;;;1.88;1.08;;;;;;;19.16;57.06;99308.13;5092319;28;20476;-73
2023/04/27 08:17:06;;;;;;;1.40;1.08;;;;;;;19.17;56.85;99305.41;5092435;28;20110;-73
2023/04/27 08:19:31;;;;;;;2.00;1.08;;;;;;;19.17;57.05;99304.53;5073473;28;20039;-73
2023/04/27 08:21:56;;;;;;;2.33;1.10;;;;;;;19.17;57.01;99301.88;5092486;28;20480;-73
2023/04/27 08:24:22;;;;;;;2.00;0.98;;;;;;;19.19;57.00;99302.66;5092455;28;20024;-73
2023/04/27 08:26:47;;;;;;;1.17;1.00;;;;;;;19.19;56.71;99298.22;5073879;28;20055;-73
2023/04/27 08:29:13;;;;;;;1.73;1.13;;;;;;;19.19;57.12;99287.63;5091977;28;20059;-73
2023/04/27 08:31:38;;;;;;;2.03;1.00;;;;;;;19.21;57.01;99292.00;5092364;28;20054;-73
2023/04/27 08:34:04;;;;;;;1.65;0.82;;;;;;;19.22;56.82;99288.44;5091847;28;20535;-74
2023/04/27 08:36:29;;;;;;;1.90;0.90;;;;;;;19.22;56.90;99294.53;5092205;28;20036;-74
2023/04/27 08:38:55;;;;;;;1.88;1.10;;;;;;;19.22;56.80;99286.63;5091636;28;20024;-74
2023/04/27 08:41:21;;;;;;;1.73;1.30;;;;;;;19.25;56.87;99294.38;5092161;28;20028;-74
2023/04/27 08:43:50;;;;;;;1.70;1.23;;;;;;;19.25;56.91;99289.09;5091991;28;20028;-74
2023/04/27 08:46:20;;;;;;;2.10;1.00;;;;;;;19.25;57.00;99281.16;5092140;28;20506;-75
2023/04/27 08:48:48;;;;;;;2.63;1.20;;;;;;;19.26;57.04;99282.88;5091705;28;20415;-74
2023/04/27 08:51:15;;;;;;;2.03;1.20;;;;;;;19.27;56.85;99278.44;5091782;28;20093;-74
2023/04/27 08:53:48;;;;;;;2.17;1.13;;;;;;;19.28;56.90;99283.63;5107733;28;20024;-75
2023/04/27 08:56:13;;;;;;;2.47;1.30;;;;;;;19.30;56.90;99283.53;5092043;28;20024;-74
2023/04/27 08:58:38;;;;;;;1.55;0.98;;;;;;;19.29;56.67;99282.69;5092151;28;20016;-74
2023/04/27 09:01:06;;;;;;;1.48;1.17;;;;;;;19.30;56.74;99284.41;5091811;28;20491;-74
2023/04/27 09:03:33;;;;;;;1.50;1.10;;;;;;;19.31;56.71;99280.81;5091590;28;20055;-74
2023/04/27 09:05:59;;;;;;;2.10;1.10;;;;;;;19.32;56.80;99289.59;5091909;28;20039;-74
2023/04/27 09:08:25;;;;;;;1.75;1.15;;;;;;;19.34;56.92;99290.38;5095401;28;20506;-74
2023/04/27 09:10:51;;;;;;;2.13;1.10;;;;;;;19.35;56.84;99307.06;5095709;28;20024;-74
2023/04/27 09:13:17;;;;;;;3.08;1.30;;;;;;;19.37;56.91;99298.13;5095721;28;20028;-74
2023/04/27 09:15:47;;;;;;;1.60;1.00;;;;;;;19.38;56.82;99302.50;5095627;28;20114;-74
2023/04/27 09:18:17;;;;;;;1.65;1.10;;;;;;;19.39;56.91;99303.31;5095360;28;20103;-74
2023/04/27 09:20:47;;;;;;;1.45;1.00;;;;;;;19.39;56.85;99298.91;5095365;28;20112;-73
2023/04/27 09:23:30;;;;;;;2.78;1.33;;;;;;;19.41;56.82;99296.16;5095620;28;20500;-74
2023/04/27 09:25:57;;;;;;;1.98;1.10;;;;;;;19.41;56.96;99296.16;5095653;28;20024;-74
2023/04/27 09:28:27;;;;;;;1.60;1.17;;;;;;;19.43;56.85;99296.94;5095467;28;20032;-74
2023/04/27 09:30:55;;;;;;;1.70;1.00;;;;;;;19.43;56.92;99294.28;5095438;28;20534;-73
2023/04/27 09:33:25;;;;;;;1.27;0.90;;;;;;;19.44;56.88;99296.84;5094879;28;20128;-73
2023/04/27 09:35:51;;;;;;;1.33;0.80;;;;;;;19.45;56.77;99292.41;5095227;28;20032;-73
2023/04/27 09:38:18;;;;;;;0.95;0.82;;;;;;;19.47;56.79;99290.53;5095141;28;20023;-74
2023/04/27 09:40:44;;;;;;;2.50;1.27;;;;;;;19.46;57.13;99283.50;5095142;28;20059;-74
2023/04/27 09:43:10;;;;;;;2.60;1.00;;;;;;;19.48;56.96;99276.34;5094897;28;20459;-73
2023/04/27 09:45:37;;;;;;;1.00;0.90;;;;;;;19.49;57.15;99262.19;5095081;28;20054;-74
2023/04/27 09:48:04;;;;;;;2.00;1.20;;;;;;;19.49;56.95;99259.53;5094542;28;20028;-75
2023/04/27 09:50:37;;;;;;;1.83;1.00;;;;;;;19.50;56.92;99258.59;5094838;28;20093;-74
2023/04/27 09:53:05;;;;;;;2.83;1.00;;;;;;;19.51;57.00;99260.28;5095106;28;20480;-73
2023/04/27 09:55:40;;;;;;;1.85;1.13;;;;;;;19.51;56.98;99252.34;5094974;28;20028;-74
2023/04/27 09:58:33;;;;;;;1.20;0.73;;;;;;;19.52;57.25;99255.84;5094794;28;20025;-74
2023/04/27 10:01:11;;;;;;;1.45;0.90;;;;;;;19.54;57.06;99254.81;5076474;28;20036;-74
2023/04/27 10:03:42;;;;;;;1.77;0.75;;;;;;;19.54;56.99;99257.47;5094832;28;20028;-74
2023/04/27 10:06:14;;;;;;;1.42;0.90;;;;;;;19.55;57.03;99255.66;5094539;28;20024;-74
2023/04/27 10:08:40;;;;;;;1.92;1.15;;;;;;;19.57;57.13;99264.38;5094893;28;20055;-74
2023/04/27 10:11:14;;;;;;;1.75;1.00;;;;;;;19.58;57.22;99261.63;5092145;28;20024;-74
2023/04/27 10:13:52;;;;;;;1.38;1.00;;;;;;;19.58;57.03;99256.31;5094699;28;20031;-74
2023/04/27 10:16:19;;;;;;;1.65;0.90;;;;;;;19.59;57.08;99247.47;5094165;28;20032;-74
2023/04/27 10:18:52;;;;;;;1.75;0.98;;;;;;;19.59;57.28;99258.06;5094055;28;20039;-73
2023/04/27 10:21:18;;;;;;;1.05;0.85;;;;;;;19.61;57.44;99254.47;5094450;28;20021;-73
2023/04/27 10:23:49;;;;;;;2.40;0.95;;;;;;;19.63;57.20;99247.28;5094560;28;20031;-73
2023/04/27 10:26:25;;;;;;;1.05;0.90;;;;;;;19.63;57.19;99241.97;5094383;28;20021;-73
2023/04/27 10:29:07;;;;;;;1.42;0.90;;;;;;;19.65;57.32;99234.78;5094135;28;20028;-73
2023/04/27 10:31:34;;;;;;;0.82;0.60;;;;;;;19.66;57.22;99237.34;5094026;28;20399;-73
2023/04/27 10:34:07;;;;;;;1.75;1.00;;;;;;;19.66;57.33;99226.78;5094152;28;20078;-72
2023/04/27 10:36:39;;;;;;;1.10;0.70;;;;;;;19.67;57.29;99227.63;5094149;28;20488;-73
2023/04/27 10:39:21;;;;;;;1.20;0.75;;;;;;;19.69;57.13;99233.69;5093837;28;20028;-72
2023/04/27 10:41:54;;;;;;;1.58;0.80;;;;;;;19.70;57.15;99232.72;5093983;28;20081;-73
2023/04/27 10:44:27;;;;;;;1.98;0.80;;;;;;;19.72;57.25;99236.16;5093724;28;20028;-73
2023/04/27 10:46:53;;;;;;;1.10;0.85;;;;;;;19.72;57.40;99234.34;5093915;28;20177;-73
2023/04/27 10:49:19;;;;;;;1.10;0.80;;;;;;;19.73;57.26;99232.56;5093779;28;20447;-73
2023/04/27 10:51:46;;;;;;;0.90;0.70;;;;;;;19.75;57.29;99235.13;5094081;28;20034;-73
2023/04/27 10:54:12;;;;;;;1.10;0.80;;;;;;;19.76;57.37;99232.38;5093576;28;20054;-73
2023/04/27 10:56:39;;;;;;;1.70;0.70;;;;;;;19.78;57.19;99241.09;5093675;28;20028;-74
2023/04/27 10:59:05;;;;;;;1.52;1.05;;;;;;;19.79;57.40;99240.13;5093558;28;20032;-73
2023/04/27 11:01:30;;;;;;;2.03;1.10;;;;;;;19.81;57.38;99240.88;5093678;28;20361;-74
2023/04/27 11:04:00;;;;;;;1.58;1.02;;;;;;;19.81;57.33;99240.88;5093630;28;20024;-73
2023/04/27 11:06:27;;;;;;;1.25;0.90;;;;;;;19.81;57.32;99240.88;5093445;28;20021;-73
2023/04/27 11:08:53;;;;;;;1.52;0.85;;;;;;;19.84;57.11;99239.84;5093388;28;20028;-73
2023/04/27 11:11:19;;;;;;;1.35;1.00;;;;;;;19.84;57.47;99246.00;5093560;28;20024;-74
2023/04/27 11:13:47;;;;;;;1.13;0.70;;;;;;;19.86;57.56;99238.81;5092985;28;20020;-72
2023/04/27 11:16:14;;;;;;;2.72;0.88;;;;;;;19.88;57.30;99240.53;5093278;28;20028;-74
2023/04/27 11:18:40;;;;;;;1.92;1.00;;;;;;;19.89;57.61;99231.66;5093236;28;20024;-74
2023/04/27 11:21:17;;;;;;;1.80;0.90;;;;;;;19.91;57.53;99230.59;5093245;28;20027;-73
2023/04/27 11:23:42;;;;;;;1.52;0.90;;;;;;;19.93;57.64;99241.97;5093253;28;20634;-74
2023/04/27 11:26:13;;;;;;;2.65;1.10;;;;;;;19.93;57.72;99233.16;5093082;28;20095;-73
2023/04/27 11:28:40;;;;;;;1.55;1.00;;;;;;;19.95;57.56;99226.00;5092641;28;20055;-73
2023/04/27 11:31:06;;;;;;;1.50;1.00;;;;;;;19.97;57.61;99218.81;5092654;28;20459;-74